Time;durP1;ratioP1;P1;durP2;ratioP2;P2;SDS_P1;SDS_P2;PMS_P1;PMS_P2;Temp;Humidity;BMP_temperature;BMP_pressure;BME280_temperature;BME280_humidity;BME280_pressure;Samples;Min_cycle;Max_cycle;Signal;HPM_P1;HPM_P2
2022/07/11 00:00:20;;;;;;;4.72;2.97;;;14.10;99.90;;;;;;4998721;28;20227;-75
2022/07/11 00:03:08;;;;;;;4.13;2.80;;;14.10;99.90;;;;;;4989480;28;20237;-74
2022/07/11 00:05:57;;;;;;;9.07;3.17;;;14.10;99.90;;;;;;4995292;28;20218;-75
2022/07/11 00:08:45;;;;;;;4.70;2.53;;;14.00;99.90;;;;;;4999024;28;20223;-75
2022/07/11 00:11:34;;;;;;;3.78;2.58;;;14.10;99.90;;;;;;4971014;28;20219;-75
2022/07/11 00:14:23;;;;;;;4.57;2.00;;;14.10;99.90;;;;;;4999518;28;20218;-75
2022/07/11 00:17:13;;;;;;;2.92;2.50;;;14.00;99.90;;;;;;4988057;28;20258;-75
2022/07/11 00:20:02;;;;;;;3.70;2.58;;;14.00;99.90;;;;;;4999601;28;20249;-76
2022/07/11 00:22:50;;;;;;;5.15;1.85;;;14.00;99.90;;;;;;4990016;28;20234;-75
2022/07/11 00:25:39;;;;;;;3.78;2.05;;;14.00;99.90;;;;;;4999734;28;20227;-76
2022/07/11 00:28:27;;;;;;;3.97;2.42;;;13.90;99.90;;;;;;4985074;28;20230;-79
2022/07/11 00:31:16;;;;;;;3.78;2.05;;;13.90;99.90;;;;;;4998332;28;20568;-78
2022/07/11 00:34:06;;;;;;;6.47;2.08;;;13.90;99.90;;;;;;4999176;28;20237;-78
2022/07/11 00:36:58;;;;;;;6.30;2.20;;;13.90;99.90;;;;;;5001462;28;20244;-78
2022/07/11 00:39:47;;;;;;;5.15;1.67;;;13.90;99.90;;;;;;5001167;28;20222;-78
2022/07/11 00:42:36;;;;;;;4.53;2.08;;;13.90;99.90;;;;;;4998693;28;20260;-78
2022/07/11 00:45:25;;;;;;;4.20;2.00;;;13.80;99.90;;;;;;4999939;28;20257;-80
2022/07/11 00:48:14;;;;;;;4.10;1.88;;;13.80;99.90;;;;;;4999791;28;20230;-77
2022/07/11 00:51:05;;;;;;;2.38;1.60;;;13.70;99.90;;;;;;5002270;28;20273;-77
2022/07/11 00:53:56;;;;;;;2.00;1.58;;;13.70;99.90;;;;;;5007842;28;20221;-76
2022/07/11 00:56:45;;;;;;;7.50;1.70;;;13.80;99.90;;;;;;4985011;28;20226;-74
2022/07/11 00:59:34;;;;;;;4.68;1.60;;;13.70;99.90;;;;;;4994855;28;20697;-77
2022/07/11 01:02:24;;;;;;;1.60;1.50;;;13.80;99.90;;;;;;5008640;28;20309;-77
2022/07/11 01:05:12;;;;;;;3.25;1.75;;;13.70;99.90;;;;;;5005023;28;20276;-74
2022/07/11 01:08:02;;;;;;;2.92;1.55;;;13.70;99.90;;;;;;4997949;28;20230;-78
2022/07/11 01:10:51;;;;;;;4.55;1.88;;;13.60;99.90;;;;;;4992828;28;20226;-75
2022/07/11 01:13:40;;;;;;;3.97;1.77;;;13.60;99.90;;;;;;4991390;28;20223;-75
2022/07/11 01:16:29;;;;;;;4.45;1.70;;;13.60;99.90;;;;;;4995259;28;20712;-75
2022/07/11 01:19:18;;;;;;;6.13;1.63;;;13.60;99.90;;;;;;4981148;28;20238;-75
2022/07/11 01:22:07;;;;;;;1.77;1.67;;;13.60;99.90;;;;;;4984297;28;20232;-74
2022/07/11 01:24:58;;;;;;;3.25;1.98;;;13.60;99.90;;;;;;4994891;28;20223;-74
2022/07/11 01:27:46;;;;;;;3.88;1.70;;;13.50;99.90;;;;;;4989579;28;20522;-75
2022/07/11 01:30:39;;;;;;;10.20;2.30;;;13.40;99.90;;;;;;4982604;28;20230;-74
2022/07/11 01:33:27;;;;;;;6.32;1.83;;;13.50;99.90;;;;;;4999460;28;20215;-75
2022/07/11 01:36:16;;;;;;;5.72;1.90;;;13.50;99.90;;;;;;4990967;28;20231;-76
2022/07/11 01:39:05;;;;;;;5.75;1.83;;;13.50;99.90;;;;;;4991224;28;20716;-74
2022/07/11 01:41:55;;;;;;;5.38;2.10;;;13.50;99.90;;;;;;5010742;28;20312;-74
2022/07/11 01:44:47;;;;;;;3.92;1.77;;;13.40;99.90;;;;;;4996824;28;20230;-75
2022/07/11 01:47:36;;;;;;;7.15;2.05;;;13.50;99.90;;;;;;5011111;28;20233;-76
2022/07/11 01:50:25;;;;;;;4.60;1.80;;;13.50;99.90;;;;;;5025259;28;20232;-77
2022/07/11 01:53:13;;;;;;;10.75;1.90;;;13.50;99.90;;;;;;5021358;28;20221;-77
2022/07/11 01:56:02;;;;;;;5.32;1.95;;;13.40;99.90;;;;;;5016043;28;20218;-77
2022/07/11 01:59:11;;;;;;;4.13;2.08;;;13.40;99.90;;;;;;5000180;28;20214;-76
2022/07/11 02:01:59;;;;;;;8.95;2.28;;;13.50;99.90;;;;;;5009254;28;20221;-82
2022/07/11 02:04:48;;;;;;;5.00;2.08;;;13.50;99.90;;;;;;5017545;28;20237;-80
2022/07/11 02:10:45;;;;;;;3.35;1.70;;;13.40;99.90;;;;;;5013750;28;20723;-78
2022/07/11 02:13:33;;;;;;;5.43;2.33;;;13.30;99.90;;;;;;5015456;28;20241;-77
2022/07/11 02:16:23;;;;;;;3.13;1.90;;;13.40;99.90;;;;;;4988340;28;20282;-77
2022/07/11 02:19:12;;;;;;;3.53;1.85;;;13.50;99.90;;;;;;5015338;28;20715;-78
2022/07/11 02:22:05;;;;;;;4.40;2.20;;;13.50;99.90;;;;;;5014211;28;20330;-77
2022/07/11 02:24:54;;;;;;;6.57;2.17;;;13.40;99.90;;;;;;5004573;28;20227;-78
2022/07/11 02:27:42;;;;;;;3.90;2.13;;;13.50;99.90;;;;;;5017008;28;20234;-77
2022/07/11 02:30:31;;;;;;;9.45;2.40;;;13.50;99.90;;;;;;5014667;28;20230;-74
2022/07/11 02:33:21;;;;;;;2.88;1.95;;;13.40;99.90;;;;;;5017209;28;20682;-74
2022/07/11 02:36:10;;;;;;;4.85;2.40;;;13.40;99.90;;;;;;5011007;28;20222;-75
2022/07/11 02:38:58;;;;;;;4.63;2.65;;;13.40;99.90;;;;;;5002352;28;20250;-75
2022/07/11 02:41:47;;;;;;;7.15;2.45;;;13.50;99.90;;;;;;5016163;28;20694;-75
2022/07/11 02:44:35;;;;;;;4.93;2.28;;;13.40;99.90;;;;;;5012657;28;20233;-74
2022/07/11 02:47:25;;;;;;;7.45;2.88;;;13.50;99.90;;;;;;5017434;28;20237;-75
2022/07/11 02:50:15;;;;;;;7.55;2.85;;;13.40;99.90;;;;;;4999680;28;21084;-75
2022/07/11 02:53:04;;;;;;;7.57;2.63;;;13.50;99.90;;;;;;5013825;28;20221;-75
2022/07/11 02:55:52;;;;;;;6.53;2.92;;;13.40;99.90;;;;;;5014524;28;20218;-75
2022/07/11 02:58:41;;;;;;;10.68;2.55;;;13.50;99.90;;;;;;5008779;28;20229;-76
2022/07/11 03:01:28;;;;;;;3.47;2.63;;;13.60;99.90;;;;;;5015445;28;20256;-78
2022/07/11 03:04:17;;;;;;;5.28;2.88;;;13.70;99.90;;;;;;5017176;28;20371;-76
2022/07/11 03:07:07;;;;;;;10.75;3.28;;;13.70;99.90;;;;;;5008520;28;22164;-74
2022/07/11 03:09:56;;;;;;;4.95;2.75;;;13.60;99.90;;;;;;5002673;28;20233;-76
2022/07/11 03:12:45;;;;;;;7.78;3.10;;;13.70;99.90;;;;;;5015253;28;20232;-76
2022/07/11 03:15:33;;;;;;;8.73;3.67;;;13.70;99.90;;;;;;5007551;28;20282;-76
2022/07/11 03:18:22;;;;;;;6.22;3.40;;;13.70;99.90;;;;;;5013504;28;20229;-77
2022/07/11 03:21:10;;;;;;;6.00;3.22;;;13.60;99.90;;;;;;5002881;28;20300;-76
2022/07/11 03:24:01;;;;;;;5.97;3.22;;;13.60;99.90;;;;;;5021484;28;20233;-76
2022/07/11 03:26:49;;;;;;;8.65;3.67;;;13.60;99.90;;;;;;5015909;28;20361;-76
2022/07/11 03:29:38;;;;;;;8.63;3.53;;;13.70;99.90;;;;;;5019125;28;20225;-78
2022/07/11 03:32:27;;;;;;;6.88;3.05;;;13.60;99.90;;;;;;5017630;28;20229;-75
2022/07/11 03:38:22;;;;;;;6.15;2.95;;;13.70;99.90;;;;;;5018918;28;20708;-77
2022/07/11 03:41:12;;;;;;;7.13;3.38;;;13.70;99.90;;;;;;5020644;28;20233;-78
2022/07/11 03:44:01;;;;;;;6.55;2.95;;;13.70;99.90;;;;;;5010876;28;20213;-77
2022/07/11 03:46:49;;;;;;;7.40;3.30;;;13.80;99.90;;;;;;5015019;28;20225;-77
2022/07/11 03:49:38;;;;;;;6.78;3.13;;;13.90;99.90;;;;;;5017742;28;20325;-77
2022/07/11 03:52:29;;;;;;;4.30;3.25;;;13.80;99.90;;;;;;5017339;28;20284;-77
2022/07/11 03:55:18;;;;;;;9.63;2.95;;;14.00;99.90;;;;;;5017014;28;20711;-76
2022/07/11 03:58:08;;;;;;;5.15;3.22;;;14.10;99.90;;;;;;5009283;28;20209;-77
2022/07/11 04:00:56;;;;;;;7.95;3.30;;;14.00;99.90;;;;;;5028294;28;20229;-77
2022/07/11 04:03:45;;;;;;;12.48;3.90;;;14.10;99.90;;;;;;5015397;28;20225;-78
2022/07/11 04:06:34;;;;;;;9.05;3.50;;;14.10;99.90;;;;;;5018267;28;20961;-78
2022/07/11 04:09:24;;;;;;;11.20;3.83;;;14.00;99.90;;;;;;5004163;28;20221;-76
2022/07/11 04:12:13;;;;;;;8.60;3.20;;;14.10;99.90;;;;;;5016657;28;20225;-77
2022/07/11 04:15:06;;;;;;;11.57;3.80;;;14.20;99.90;;;;;;5010574;28;20263;-76
2022/07/11 04:17:54;;;;;;;9.73;3.50;;;14.20;99.90;;;;;;5023329;28;20224;-74
2022/07/11 04:20:43;;;;;;;6.15;3.00;;;14.20;99.90;;;;;;5009913;28;20700;-75
2022/07/11 04:23:32;;;;;;;5.47;3.30;;;14.20;99.90;;;;;;5020367;28;20214;-74
2022/07/11 04:26:20;;;;;;;5.38;3.63;;;14.40;99.90;;;;;;4992567;28;20269;-76
2022/07/11 04:29:09;;;;;;;6.95;3.55;;;14.50;99.90;;;;;;5015539;28;20254;-76
2022/07/11 04:31:58;;;;;;;8.75;3.30;;;14.70;99.90;;;;;;5001882;28;20228;-74
2022/07/11 04:34:50;;;;;;;7.78;3.50;;;14.70;99.90;;;;;;5015682;28;20237;-76
2022/07/11 04:37:39;;;;;;;9.65;3.60;;;14.50;99.90;;;;;;5002211;28;20230;-76
2022/07/11 04:40:28;;;;;;;6.57;3.97;;;14.50;99.90;;;;;;5005144;28;20568;-76
2022/07/11 04:43:17;;;;;;;11.73;4.47;;;14.40;99.90;;;;;;5014820;28;20783;-76
2022/07/11 04:46:06;;;;;;;11.02;3.90;;;14.30;99.90;;;;;;5021122;28;20233;-76
2022/07/11 04:48:56;;;;;;;7.15;3.72;;;14.30;99.90;;;;;;5001038;28;20229;-74
2022/07/11 04:51:45;;;;;;;9.45;3.92;;;14.30;99.90;;;;;;5016847;28;20329;-76
2022/07/11 04:54:33;;;;;;;9.05;3.85;;;14.30;99.90;;;;;;5004719;28;20229;-75
2022/07/11 04:57:22;;;;;;;6.55;4.05;;;14.30;99.90;;;;;;5019569;28;21111;-76
2022/07/11 05:00:11;;;;;;;8.23;5.60;;;14.40;99.90;;;;;;5014527;28;20747;-76
2022/07/11 05:03:00;;;;;;;9.45;4.38;;;14.40;99.90;;;;;;5018897;28;20245;-74
2022/07/11 05:05:50;;;;;;;12.48;4.53;;;14.40;99.90;;;;;;5017578;28;20225;-75
2022/07/11 05:08:38;;;;;;;10.32;4.57;;;14.50;99.90;;;;;;5014417;28;20226;-76
2022/07/11 05:11:27;;;;;;;8.13;5.05;;;14.50;99.90;;;;;;5016080;28;20223;-77
2022/07/11 05:14:20;;;;;;;11.65;4.40;;;14.60;99.90;;;;;;5006325;28;20236;-76
2022/07/11 05:17:09;;;;;;;9.30;4.70;;;14.50;99.90;;;;;;5015504;28;20222;-78
2022/07/11 05:19:57;;;;;;;10.80;5.18;;;14.50;99.90;;;;;;5020902;28;20271;-74
2022/07/11 05:22:47;;;;;;;15.40;5.45;;;14.60;99.90;;;;;;4998329;28;20669;-75
2022/07/11 05:25:35;;;;;;;7.03;4.50;;;14.50;99.90;;;;;;5017542;28;20233;-79
2022/07/11 05:28:24;;;;;;;6.95;4.90;;;14.50;99.90;;;;;;5005928;28;20588;-78
2022/07/11 05:31:13;;;;;;;7.88;4.40;;;14.60;99.90;;;;;;5014852;28;20232;-77
2022/07/11 05:34:01;;;;;;;10.27;4.55;;;14.60;99.90;;;;;;5014880;28;20726;-76
2022/07/11 05:36:50;;;;;;;9.48;4.88;;;14.60;99.90;;;;;;5015968;28;21005;-76
2022/07/11 05:39:40;;;;;;;10.25;5.43;;;14.70;99.90;;;;;;5004715;28;20239;-80
2022/07/11 05:42:28;;;;;;;8.38;5.85;;;14.70;99.90;;;;;;5013995;28;20232;-78
2022/07/11 05:45:17;;;;;;;10.55;5.63;;;14.80;99.90;;;;;;5003497;28;20229;-75
2022/07/11 05:48:06;;;;;;;9.43;7.13;;;14.90;99.90;;;;;;5014466;28;20221;-74
2022/07/11 05:50:55;;;;;;;10.75;6.85;;;14.80;99.90;;;;;;5008333;28;20650;-74
2022/07/11 05:53:43;;;;;;;8.75;6.97;;;14.90;99.90;;;;;;5000572;28;20225;-78
2022/07/11 05:56:34;;;;;;;10.90;8.88;;;14.80;99.90;;;;;;5003479;28;20237;-75
2022/07/11 05:59:22;;;;;;;10.23;8.20;;;14.70;99.90;;;;;;5016017;28;20222;-75
2022/07/11 06:02:11;;;;;;;13.27;8.50;;;14.80;99.90;;;;;;5015323;28;20580;-76
2022/07/11 06:05:00;;;;;;;11.73;7.68;;;14.90;99.90;;;;;;5020480;28;20218;-86
2022/07/11 06:10:55;;;;;;;7.65;4.82;;;15.00;99.90;;;;;;5034950;28;20237;-77
2022/07/11 06:13:45;;;;;;;7.53;4.50;;;15.00;99.90;;;;;;5005468;28;20213;-77
2022/07/11 06:16:35;;;;;;;7.50;4.28;;;15.10;99.90;;;;;;4999973;28;20229;-84
2022/07/11 06:19:24;;;;;;;8.88;4.40;;;15.30;99.90;;;;;;5017480;28;20687;-78
2022/07/11 06:22:12;;;;;;;7.53;4.18;;;15.20;99.90;;;;;;5011860;28;20230;-75
2022/07/11 06:25:01;;;;;;;7.60;3.67;;;15.30;99.90;;;;;;5002958;28;20348;-73
2022/07/11 06:27:49;;;;;;;4.90;3.45;;;15.40;99.90;;;;;;5011600;28;20220;-74
2022/07/11 06:30:44;;;;;;;8.05;3.60;;;15.40;99.90;;;;;;4996783;28;20234;-74
2022/07/11 06:33:32;;;;;;;6.32;3.42;;;15.40;99.90;;;;;;5013015;28;20225;-76
2022/07/11 06:36:22;;;;;;;6.25;4.10;;;15.30;99.90;;;;;;5005834;28;20221;-80
2022/07/11 06:39:11;;;;;;;5.63;3.38;;;15.20;99.90;;;;;;5015119;28;20220;-73
2022/07/11 06:42:00;;;;;;;8.40;3.40;;;15.20;99.90;;;;;;5018283;28;20214;-75
2022/07/11 06:44:48;;;;;;;5.60;3.30;;;15.20;99.90;;;;;;5012520;28;20264;-75
2022/07/11 06:47:38;;;;;;;5.35;3.75;;;15.30;99.90;;;;;;5024172;28;20821;-76
2022/07/11 06:50:27;;;;;;;4.60;3.60;;;15.30;99.90;;;;;;5021490;28;20226;-78
2022/07/11 06:53:15;;;;;;;4.68;3.28;;;15.30;99.90;;;;;;5022692;28;20302;-74
2022/07/11 06:56:04;;;;;;;13.07;4.30;;;15.30;99.90;;;;;;5015791;28;20904;-77
2022/07/11 06:58:53;;;;;;;7.40;3.88;;;15.20;99.90;;;;;;5015659;28;20748;-75
2022/07/11 07:01:43;;;;;;;6.90;4.00;;;15.10;99.90;;;;;;5005301;28;20241;-76
2022/07/11 07:04:33;;;;;;;7.88;4.10;;;15.20;99.90;;;;;;5014249;28;20226;-76
2022/07/11 07:07:22;;;;;;;7.78;4.32;;;15.00;99.90;;;;;;5016922;28;20222;-76
2022/07/11 07:10:11;;;;;;;12.05;4.50;;;15.10;99.90;;;;;;5019175;28;20236;-75
2022/07/11 07:12:59;;;;;;;9.30;4.30;;;15.00;99.90;;;;;;5023193;28;20228;-74
2022/07/11 07:15:48;;;;;;;6.28;4.40;;;15.10;99.90;;;;;;5017014;28;20218;-76
2022/07/11 07:18:40;;;;;;;10.30;4.97;;;15.30;99.90;;;;;;5021470;28;20225;-75
2022/07/11 07:21:34;;;;;;;8.45;4.75;;;15.30;99.90;;;;;;5013532;28;20225;-76
2022/07/11 07:24:23;;;;;;;9.32;5.00;;;15.20;99.90;;;;;;5017671;28;20296;-76
2022/07/11 07:27:11;;;;;;;7.60;4.50;;;15.30;99.90;;;;;;5020595;28;20227;-76
2022/07/11 07:30:00;;;;;;;6.70;4.30;;;15.40;99.90;;;;;;5020786;28;20217;-74
2022/07/11 07:32:48;;;;;;;11.15;5.13;;;15.60;99.90;;;;;;5005413;28;20221;-76
2022/07/11 07:35:37;;;;;;;8.30;4.57;;;15.90;99.90;;;;;;5013914;28;20855;-74
2022/07/11 07:38:29;;;;;;;10.48;4.30;;;16.10;99.90;;;;;;5000390;28;20240;-75
2022/07/11 07:41:17;;;;;;;9.43;5.28;;;16.40;99.90;;;;;;5010508;28;20728;-75
2022/07/11 07:44:07;;;;;;;12.18;5.13;;;16.30;99.90;;;;;;5018361;28;20232;-76
2022/07/11 07:46:56;;;;;;;6.53;5.45;;;16.40;99.90;;;;;;5013013;28;20716;-74
2022/07/11 07:49:44;;;;;;;11.15;6.07;;;16.40;99.90;;;;;;5017854;28;20676;-76
2022/07/11 07:52:37;;;;;;;12.38;6.70;;;16.30;99.90;;;;;;5010356;28;20372;-75
2022/07/11 07:55:26;;;;;;;13.13;7.18;;;16.00;99.90;;;;;;5015294;28;20221;-75
2022/07/11 07:58:15;;;;;;;12.38;7.20;;;16.00;99.90;;;;;;5012763;28;20305;-75
2022/07/11 08:04:10;;;;;;;13.10;7.07;;;16.90;99.90;;;;;;5003365;28;20217;-75
2022/07/11 08:06:59;;;;;;;9.05;6.38;;;17.20;99.90;;;;;;5001997;28;20221;-74
2022/07/11 08:09:48;;;;;;;9.05;5.47;;;17.30;99.90;;;;;;4996021;28;20222;-76
2022/07/11 08:12:38;;;;;;;10.82;6.75;;;17.00;99.90;;;;;;5004694;28;20240;-75
2022/07/11 08:15:30;;;;;;;9.40;6.07;;;16.80;99.90;;;;;;5006836;28;20309;-78
2022/07/11 08:18:18;;;;;;;10.90;6.80;;;16.80;99.90;;;;;;5019674;28;20234;-76
2022/07/11 08:21:07;;;;;;;6.28;4.72;;;17.00;99.90;;;;;;5018517;28;20581;-75
2022/07/11 08:24:01;;;;;;;6.80;4.07;;;17.60;99.90;;;;;;5018948;28;20240;-74
2022/07/11 08:26:50;;;;;;;4.45;3.03;;;18.20;99.90;;;;;;5002330;28;20233;-76
2022/07/11 08:29:40;;;;;;;5.22;2.60;;;18.50;99.90;;;;;;5000555;28;20711;-73
2022/07/11 08:32:29;;;;;;;3.65;2.58;;;19.10;99.90;;;;;;5016217;28;20786;-80
2022/07/11 08:35:21;;;;;;;2.50;2.20;;;18.90;99.90;;;;;;5014607;28;20233;-76
2022/07/11 08:38:11;;;;;;;5.68;2.60;;;18.70;99.90;;;;;;5014217;28;20233;-80
2022/07/11 08:41:00;;;;;;;3.65;2.40;;;18.40;99.90;;;;;;5014537;28;20267;-77
2022/07/11 08:43:50;;;;;;;4.72;2.35;;;18.90;99.90;;;;;;5008906;28;20238;-78
2022/07/11 08:46:41;;;;;;;2.50;2.15;;;19.50;99.90;;;;;;5015218;28;20308;-78
2022/07/11 08:49:30;;;;;;;4.18;1.92;;;20.70;99.90;;;;;;5015377;28;20233;-78
2022/07/11 08:52:21;;;;;;;2.92;2.13;;;21.60;99.90;;;;;;5001263;28;20229;-76
2022/07/11 08:55:10;;;;;;;3.05;2.05;;;22.50;99.90;;;;;;5016316;28;20225;-76
2022/07/11 08:57:59;;;;;;;2.78;2.08;;;21.60;99.90;;;;;;5008123;28;20229;-77
2022/07/11 09:00:47;;;;;;;2.75;1.92;;;20.30;99.90;;;;;;5014107;28;20550;-78
2022/07/11 09:03:37;;;;;;;2.30;1.80;;;19.80;99.90;;;;;;5015532;28;20678;-78
2022/07/11 09:06:26;;;;;;;5.43;2.05;;;20.30;99.90;;;;;;5018817;28;20240;-78
2022/07/11 09:09:15;;;;;;;6.15;2.45;;;21.60;99.90;;;;;;5001588;28;20221;-78
2022/07/11 09:12:12;;;;;;;4.20;2.50;;;20.90;99.90;;;;;;5014034;28;20222;-77
2022/07/11 09:15:00;;;;;;;5.35;2.28;;;20.30;99.90;;;;;;5011093;28;20226;-77
2022/07/11 09:17:53;;;;;;;3.70;1.80;;;19.80;99.90;;;;;;5003351;28;20248;-76
2022/07/11 09:27:12;;;;;;;3.72;2.00;;;20.90;99.90;;;;;;5015601;28;20221;-76
2022/07/11 09:30:17;;;;;;;2.75;1.73;;;23.40;99.90;;;;;;5014654;28;20229;-77
2022/07/11 09:33:09;;;;;;;2.53;1.70;;;23.60;99.90;;;;;;5014633;28;20232;-78
2022/07/11 09:36:04;;;;;;;2.10;1.30;;;23.20;99.90;;;;;;5024212;28;20221;-75
2022/07/11 09:38:58;;;;;;;5.32;1.40;;;22.00;99.90;;;;;;5027553;28;20213;-76
2022/07/11 09:41:49;;;;;;;1.17;0.80;;;21.20;99.90;;;;;;5013567;28;20230;-79
2022/07/11 09:44:38;;;;;;;1.58;1.10;;;20.50;99.90;;;;;;5015240;28;20695;-78
2022/07/11 09:47:26;;;;;;;3.45;0.90;;;22.30;99.90;;;;;;5017928;28;20255;-78
2022/07/11 09:50:19;;;;;;;1.17;0.90;;;24.70;97.50;;;;;;5019903;28;20237;-79
2022/07/11 09:53:11;;;;;;;3.22;1.00;;;26.60;85.30;;;;;;5024901;28;20225;-79
2022/07/11 09:55:59;;;;;;;1.60;0.98;;;27.50;83.10;;;;;;5019807;28;20273;-78
2022/07/11 09:58:59;;;;;;;1.40;0.93;;;29.20;75.50;;;;;;5008119;28;20225;-78
2022/07/11 10:01:48;;;;;;;1.20;0.80;;;30.30;68.50;;;;;;5016706;28;20217;-81
2022/07/11 10:04:37;;;;;;;1.17;0.80;;;29.80;68.20;;;;;;5015615;28;20221;-78
2022/07/11 10:07:26;;;;;;;4.90;1.40;;;30.90;66.80;;;;;;5005781;28;20216;-79
2022/07/11 10:10:16;;;;;;;1.73;0.95;;;28.80;61.80;;;;;;5014843;28;20642;-78
2022/07/11 10:13:05;;;;;;;1.55;1.10;;;27.70;66.80;;;;;;5003576;28;20319;-79
2022/07/11 10:15:57;;;;;;;2.65;0.90;;;29.80;67.20;;;;;;5016312;28;20235;-78
2022/07/11 10:18:57;;;;;;;0.98;0.55;;;31.70;59.10;;;;;;5016224;28;20231;-77
2022/07/11 10:21:57;;;;;;;1.08;0.70;;;31.50;57.70;;;;;;5009455;28;20225;-77
2022/07/11 10:24:59;;;;;;;0.80;0.60;;;32.50;53.10;;;;;;5000603;28;20648;-76
2022/07/11 10:28:03;;;;;;;0.70;0.60;;;32.10;55.90;;;;;;4994911;28;20687;-77
2022/07/11 10:30:55;;;;;;;0.52;0.45;;;29.60;55.90;;;;;;5015965;28;20229;-76
2022/07/11 10:34:02;;;;;;;1.83;0.68;;;26.50;61.90;;;;;;5014609;28;20331;-77
2022/07/11 10:36:50;;;;;;;1.08;0.70;;;24.50;65.50;;;;;;4999939;28;20298;-77
2022/07/11 10:39:46;;;;;;;1.42;0.68;;;24.70;66.70;;;;;;5017397;28;20575;-77
2022/07/11 10:42:42;;;;;;;2.00;0.70;;;24.20;72.40;;;;;;5013775;28;20217;-76
2022/07/11 10:45:50;;;;;;;1.45;0.50;;;23.50;74.30;;;;;;5015847;28;20217;-79
2022/07/11 10:48:57;;;;;;;0.80;0.50;;;23.30;79.30;;;;;;5016681;28;20222;-75
2022/07/11 10:51:55;;;;;;;0.57;0.57;;;23.00;81.10;;;;;;4985199;28;20645;-76
2022/07/11 10:55:21;;;;;;;1.15;0.70;;;24.60;77.00;;;;;;5000851;28;20306;-76
2022/07/11 10:58:19;;;;;;;1.02;0.60;;;24.20;78.80;;;;;;4994266;28;20963;-78
2022/07/11 11:01:13;;;;;;;0.70;0.70;;;23.20;82.00;;;;;;5000562;28;20236;-75
2022/07/11 11:04:40;;;;;;;0.57;0.52;;;25.30;80.60;;;;;;4999008;28;20234;-76
2022/07/11 11:07:31;;;;;;;3.00;2.63;;;27.70;71.20;;;;;;4984489;28;20241;-76
2022/07/11 11:10:46;;;;;;;2.22;0.70;;;28.40;67.40;;;;;;4996098;28;20232;-77
2022/07/11 11:13:36;;;;;;;1.30;0.75;;;27.60;68.20;;;;;;4979589;28;20233;-76
2022/07/11 11:16:29;;;;;;;2.53;0.80;;;28.60;68.90;;;;;;4983461;28;20271;-75
2022/07/11 11:19:53;;;;;;;0.98;0.70;;;31.80;62.50;;;;;;5002737;28;20320;-76
2022/07/11 11:22:41;;;;;;;2.30;0.60;;;33.80;57.50;;;;;;4998556;28;20218;-76
2022/07/11 11:25:32;;;;;;;0.55;0.52;;;35.20;54.60;;;;;;5001183;28;20221;-77
2022/07/11 11:28:21;;;;;;;1.77;0.70;;;35.90;51.80;;;;;;5005586;28;20226;-77
2022/07/11 11:31:10;;;;;;;0.75;0.50;;;36.70;51.40;;;;;;5007056;28;20232;-77
2022/07/11 11:34:06;;;;;;;1.15;0.95;;;36.50;49.50;;;;;;5002482;28;20226;-77
2022/07/11 11:36:59;;;;;;;1.25;0.90;;;36.40;49.60;;;;;;4997619;28;20632;-77
2022/07/11 11:39:48;;;;;;;1.80;0.57;;;36.60;47.60;;;;;;5004812;28;20600;-77
2022/07/11 11:42:36;;;;;;;1.17;0.70;;;36.80;46.00;;;;;;5008781;28;20224;-77
2022/07/11 11:45:30;;;;;;;1.02;0.50;;;36.30;45.70;;;;;;5007294;28;20240;-79
2022/07/11 11:48:28;;;;;;;1.35;0.60;;;35.80;49.00;;;;;;5003606;28;20241;-77
2022/07/11 11:51:20;;;;;;;1.17;0.63;;;36.70;47.70;;;;;;5003409;28;20225;-80
2022/07/11 11:54:09;;;;;;;1.63;0.63;;;36.60;47.10;;;;;;5011486;28;20233;-78
2022/07/11 11:57:07;;;;;;;1.75;0.60;;;35.70;48.00;;;;;;5007574;28;20221;-78
2022/07/11 11:59:56;;;;;;;0.60;0.60;;;36.90;46.20;;;;;;5007666;28;20221;-78
2022/07/11 12:02:46;;;;;;;1.23;0.73;;;35.50;45.50;;;;;;5003801;28;20581;-78
2022/07/11 12:05:35;;;;;;;0.90;0.70;;;36.70;47.60;;;;;;4986505;28;20692;-78
2022/07/11 12:08:29;;;;;;;1.52;0.80;;;37.90;45.50;;;;;;5001116;28;20296;-77
2022/07/11 12:11:23;;;;;;;1.23;0.93;;;38.30;44.00;;;;;;4995028;28;20872;-77
2022/07/11 12:14:13;;;;;;;0.95;0.73;;;38.10;44.10;;;;;;5002926;28;20308;-78
2022/07/11 12:17:02;;;;;;;0.63;0.63;;;35.90;44.40;;;;;;4999105;28;20256;-78
2022/07/11 12:19:51;;;;;;;1.00;0.55;;;35.90;46.60;;;;;;4999829;28;20233;-79
2022/07/11 12:22:44;;;;;;;1.75;0.50;;;34.40;47.20;;;;;;4996844;28;20229;-79
2022/07/11 12:25:34;;;;;;;2.22;0.70;;;35.40;46.30;;;;;;5012497;28;20222;-79
2022/07/11 12:28:23;;;;;;;0.73;0.50;;;34.00;44.80;;;;;;5002881;28;20241;-77
2022/07/11 12:31:11;;;;;;;0.65;0.57;;;33.60;49.10;;;;;;5000020;28;20213;-78
2022/07/11 12:34:01;;;;;;;0.80;0.50;;;33.30;49.30;;;;;;5003496;28;20242;-78
2022/07/11 12:36:51;;;;;;;1.60;0.40;;;32.00;49.60;;;;;;5001738;28;20533;-82
2022/07/11 12:39:49;;;;;;;2.45;0.60;;;27.90;55.00;;;;;;5000601;28;20218;-78
2022/07/11 12:42:39;;;;;;;1.48;0.70;;;24.40;61.70;;;;;;5002147;28;20578;-78
2022/07/11 12:45:27;;;;;;;1.52;1.08;;;23.70;74.30;;;;;;4985245;28;20227;-77
2022/07/11 12:48:15;;;;;;;2.65;0.80;;;23.00;93.50;;;;;;5001907;28;20311;-75
2022/07/11 12:51:04;;;;;;;2.97;0.80;;;22.40;99.60;;;;;;5014873;28;20251;-79
2022/07/11 12:54:01;;;;;;;5.55;0.70;;;21.80;99.90;;;;;;5016936;28;20230;-77
2022/07/11 12:56:54;;;;;;;2.47;0.85;;;21.10;99.90;;;;;;5014316;28;20677;-76
2022/07/11 12:59:44;;;;;;;5.45;1.10;;;21.00;99.90;;;;;;5013684;28;21027;-78
2022/07/11 13:02:35;;;;;;;2.95;1.10;;;20.70;99.90;;;;;;5012490;28;20222;-78
2022/07/11 13:05:24;;;;;;;1.55;0.70;;;20.60;99.90;;;;;;5010107;28;20228;-76
2022/07/11 13:11:31;;;;;;;1.05;0.82;;;19.80;99.90;;;;;;5011265;28;20221;-76
2022/07/11 13:17:27;;;;;;;1.75;0.70;;;19.50;99.90;;;;;;5015334;28;20271;-75
2022/07/11 13:20:17;;;;;;;1.50;0.90;;;19.40;99.90;;;;;;5014610;28;20228;-75
2022/07/11 13:23:07;;;;;;;3.00;0.70;;;19.20;99.90;;;;;;5001962;28;20224;-75
2022/07/11 13:26:05;;;;;;;0.80;0.50;;;18.70;99.90;;;;;;5015474;28;20229;-75
2022/07/11 13:28:54;;;;;;;0.57;0.55;;;18.60;99.90;;;;;;5011146;28;20245;-80
2022/07/11 13:31:42;;;;;;;0.90;0.70;;;18.80;99.90;;;;;;5000671;28;20233;-80
2022/07/11 13:34:33;;;;;;;1.90;1.08;;;18.70;99.90;;;;;;5003452;28;20234;-79
2022/07/11 13:37:21;;;;;;;2.25;0.98;;;18.80;99.90;;;;;;5009542;28;20730;-79
2022/07/11 13:40:12;;;;;;;3.75;1.00;;;18.80;99.90;;;;;;5013834;28;20719;-74
2022/07/11 13:43:02;;;;;;;1.77;0.90;;;18.60;99.90;;;;;;5013107;28;20209;-73
2022/07/11 13:45:52;;;;;;;2.03;1.00;;;18.60;99.90;;;;;;5018349;28;20736;-74
2022/07/11 13:48:41;;;;;;;2.72;0.90;;;18.60;99.90;;;;;;5010723;28;20249;-72
2022/07/11 13:51:35;;;;;;;3.90;1.40;;;18.70;99.90;;;;;;5001209;28;20226;-75
2022/07/11 13:54:26;;;;;;;5.57;1.10;;;18.60;99.90;;;;;;5009647;28;20221;-74
2022/07/11 13:57:17;;;;;;;2.20;1.52;;;18.70;99.90;;;;;;5019007;28;20225;-74
2022/07/11 14:00:07;;;;;;;3.30;1.55;;;18.80;99.90;;;;;;5022947;28;20416;-74
2022/07/11 14:03:02;;;;;;;1.85;0.82;;;18.90;99.90;;;;;;5001365;28;20237;-73
2022/07/11 14:05:51;;;;;;;1.70;0.88;;;19.00;99.90;;;;;;5012913;28;20292;-71
2022/07/11 14:08:41;;;;;;;1.95;0.77;;;19.20;99.90;;;;;;5011821;28;20222;-76
2022/07/11 14:11:30;;;;;;;2.20;0.82;;;19.00;99.90;;;;;;5012826;28;20239;-75
2022/07/11 14:14:19;;;;;;;2.25;0.90;;;19.20;99.90;;;;;;5012874;28;20233;-76
2022/07/11 14:17:07;;;;;;;5.05;1.02;;;19.20;99.90;;;;;;5005306;28;20236;-77
2022/07/11 14:19:57;;;;;;;2.65;1.00;;;19.30;99.90;;;;;;5012245;28;20695;-75
2022/07/11 14:22:45;;;;;;;4.65;1.35;;;19.40;99.90;;;;;;4999405;28;20218;-73
2022/07/11 14:25:37;;;;;;;3.78;0.98;;;19.50;99.90;;;;;;5013136;28;20221;-71
2022/07/11 14:28:29;;;;;;;1.10;0.80;;;19.40;99.90;;;;;;5005594;28;20222;-73
2022/07/11 14:31:22;;;;;;;6.30;1.40;;;19.40;99.90;;;;;;5011138;28;20233;-76
2022/07/11 14:34:11;;;;;;;3.53;1.00;;;19.30;99.90;;;;;;5012919;28;20213;-75
2022/07/11 14:37:00;;;;;;;6.60;1.38;;;19.30;99.90;;;;;;5015752;28;20226;-76
2022/07/11 14:39:48;;;;;;;5.55;1.75;;;19.30;99.90;;;;;;5016138;28;20809;-77
2022/07/11 14:42:39;;;;;;;1.50;0.95;;;19.30;99.90;;;;;;5014408;28;20230;-76
2022/07/11 14:45:30;;;;;;;2.63;1.10;;;19.30;99.90;;;;;;5019156;28;20261;-76
2022/07/11 14:48:18;;;;;;;3.72;0.93;;;19.40;99.90;;;;;;5002273;28;20237;-76
2022/07/11 14:51:07;;;;;;;2.25;0.90;;;19.20;99.90;;;;;;5000068;28;20233;-80
2022/07/11 14:53:56;;;;;;;2.58;1.10;;;19.30;99.90;;;;;;5013104;28;20845;-79
2022/07/11 14:56:48;;;;;;;1.10;0.68;;;19.30;99.90;;;;;;5014924;28;20234;-80
2022/07/11 14:59:38;;;;;;;0.95;0.73;;;19.20;99.90;;;;;;5007908;28;20217;-79
2022/07/11 15:05:33;;;;;;;0.50;0.50;;;19.20;99.90;;;;;;5011333;28;20234;-78
2022/07/11 15:14:34;;;;;;;0.80;0.63;;;18.90;99.90;;;;;;5017410;28;20236;-79
2022/07/11 15:17:24;;;;;;;0.98;0.60;;;19.00;99.90;;;;;;5021439;28;20229;-79
2022/07/11 15:20:13;;;;;;;2.45;0.70;;;19.10;99.90;;;;;;5022800;28;20314;-80